This is the latest recevied weather packets stored in our database for station/object 9W2YIE-13. If no packets are shown the sender has not sent any weather packets the latest 10 day(s).
| Time | Temp. | Humidity | Pressure | Rain* | Wind** | Luminosity | Snow |
|---|---|---|---|---|---|---|---|
| 1788011249 | 41.67° C | 36% | 1008 hPa | - | - | 0 W/m² | - |
| 1788010302 | 40.56° C | 38% | 1008 hPa | - | - | 0 W/m² | - |
| 1788009370 | 41.11° C | 37% | 1008 hPa | - | - | 0 W/m² | - |
| 1788008389 | 41.67° C | 36% | 1008 hPa | - | - | 0 W/m² | - |
| 1788007444 | 41.11° C | 37% | 1008 hPa | - | - | 0 W/m² | - |
| 1788006517 | 40° C | 39% | 1007 hPa | - | - | 0 W/m² | - |
| 1788005588 | 38.89° C | 41% | 1007 hPa | - | - | 0 W/m² | - |
| 1788004654 | 39.44° C | 40% | 1007 hPa | - | - | 0 W/m² | - |
| 1788003658 | 40° C | 40% | 1007 hPa | - | - | 0 W/m² | - |
| 1788002705 | 40.56° C | 40% | 1007 hPa | - | - | 0 W/m² | - |
| 1788001768 | 39.44° C | 42% | 1007 hPa | - | - | 0 W/m² | - |
| 1788000826 | 42.22° C | 36% | 1006 hPa | - | - | 0 W/m² | - |
| 1787999882 | 42.22° C | 37% | 1006 hPa | - | - | 0 W/m² | - |
| 1787998927 | 43.33° C | 36% | 1006 hPa | - | - | 0 W/m² | - |
| 1787997987 | 44.44° C | 33% | 1006 hPa | - | - | 0 W/m² | - |
| 1787997032 | 45° C | 32% | 1006 hPa | - | - | 0 W/m² | - |
| 1787996096 | 42.22° C | 37% | 1006 hPa | - | - | 0 W/m² | - |
| 1787995155 | 44.44° C | 33% | 1006 hPa | - | - | 0 W/m² | - |
| 1787994221 | 42.78° C | 35% | 1006 hPa | - | - | 0 W/m² | - |
| 1787993289 | 37.78° C | 45% | 1005 hPa | - | - | 0 W/m² | - |
| 1787992348 | 38.33° C | 45% | 1005 hPa | - | - | 0 W/m² | - |
| 1787991009 | 39.44° C | 37% | 1005 hPa | - | - | 0 W/m² | - |
| 1787990080 | 51.67° C | 21% | 1004 hPa | - | - | 0 W/m² | - |
| 1787989127 | 52.22° C | 20% | 1004 hPa | - | - | 0 W/m² | - |
| 1787988120 | 52.78° C | 21% | 1004 hPa | - | - | 0 W/m² | - |
* Rain since midnight (hover to see other rain measurements)
** Current wind speed in m/s (hover to see current wind gust speed)